Time;durP1;ratioP1;P1;durP2;ratioP2;P2;SDS_P1;SDS_P2;PMS_P1;PMS_P2;Temp;Humidity;BMP_temperature;BMP_pressure;BME280_temperature;BME280_humidity;BME280_pressure;Samples;Min_cycle;Max_cycle;Signal;HPM_P1;HPM_P2
2021/04/01 05:39:27;;;;;;;27.80;14.30;;;8.70;90.70;;;;;;6279807;22;20396;-92
2021/04/01 05:42:25;;;;;;;32.85;14.55;;;8.60;90.90;;;;;;6210972;22;20393;-96
2021/04/01 05:46:28;;;;;;;24.65;14.68;;;8.70;91.20;;;;;;6265137;22;20391;-93
2021/04/01 05:53:36;;;;;;;29.73;14.40;;;8.80;91.40;;;;;;6300787;22;20372;-93
2021/04/01 06:01:44;;;;;;;32.38;15.27;;;9.40;88.90;;;;;;6322156;22;20386;-96
2021/04/01 06:04:39;;;;;;;28.33;14.98;;;9.60;89.30;;;;;;6291529;22;20389;-94
2021/04/01 06:07:19;;;;;;;28.08;14.43;;;9.80;89.20;;;;;;6294467;22;20417;-96
2021/04/01 06:09:52;;;;;;;29.35;14.50;;;9.70;90.10;;;;;;6276463;22;20398;-96
2021/04/01 06:33:48;;;;;;;22.73;11.65;;;13.60;74.20;;;;;;6281478;22;20383;-95
2021/04/01 06:36:52;;;;;;;23.58;12.60;;;14.40;69.50;;;;;;6317106;22;20379;-94
2021/04/01 08:07:18;;;;;;;27.92;13.93;;;16.80;55.20;;;;;;6241253;22;20424;-95
2021/04/01 08:10:45;;;;;;;26.25;13.25;;;17.20;55.40;;;;;;6226324;22;20376;-95
2021/04/01 08:23:18;;;;;;;25.00;12.93;;;18.50;53.10;;;;;;6278611;22;20418;-93
2021/04/01 08:26:58;;;;;;;27.85;13.32;;;18.80;53.40;;;;;;6099057;23;20843;-96
2021/04/01 08:37:00;;;;;;;28.38;14.57;;;18.90;53.60;;;;;;6213858;22;20476;-94
2021/04/01 08:39:50;;;;;;;24.13;14.55;;;19.00;53.40;;;;;;6227242;23;20762;-94
2021/04/01 08:43:04;;;;;;;30.85;14.93;;;19.00;53.40;;;;;;6226448;23;20408;-95
2021/04/01 08:45:54;;;;;;;30.77;15.20;;;18.80;53.50;;;;;;6252880;23;20394;-93
2021/04/01 08:49:16;;;;;;;25.48;15.30;;;18.60;53.80;;;;;;6224631;23;20854;-94
2021/04/01 08:51:55;;;;;;;27.60;15.60;;;18.30;55.50;;;;;;6219378;23;20394;-94
2021/04/01 08:54:30;;;;;;;32.58;16.23;;;18.50;54.10;;;;;;6220881;23;20437;-93
2021/04/01 08:57:14;;;;;;;31.17;15.43;;;19.00;56.00;;;;;;6220639;23;20386;-92
2021/04/01 09:00:22;;;;;;;31.00;15.75;;;18.60;54.30;;;;;;6227490;23;20386;-93
2021/04/01 09:03:34;;;;;;;;;;;;;;;;;;;;;
2021/04/01 09:09:30;;;;;;;28.53;16.70;;;17.60;57.50;;;;;;6277623;22;20390;-90
2021/04/01 09:12:12;;;;;;;34.65;17.38;;;17.70;59.80;;;;;;6287055;22;20432;-94
2021/04/01 09:14:59;;;;;;;31.88;17.90;;;17.40;64.00;;;;;;6311683;22;20437;-92
2021/04/01 09:17:32;;;;;;;30.58;17.30;;;17.50;63.60;;;;;;6319040;22;20402;-91
2021/04/01 09:20:28;;;;;;;29.77;17.60;;;17.80;59.80;;;;;;6293306;22;20930;-92
2021/04/01 09:23:16;;;;;;;32.07;17.77;;;18.00;59.70;;;;;;6293502;22;20374;-92
2021/04/01 09:25:46;;;;;;;32.08;19.33;;;18.10;58.50;;;;;;6293445;22;20383;-91
2021/04/01 09:28:17;;;;;;;40.42;19.27;;;18.30;60.30;;;;;;6317788;22;20383;-93
2021/04/01 09:31:06;;;;;;;37.03;20.50;;;18.70;54.70;;;;;;6295408;22;20366;-91
2021/04/01 09:33:44;;;;;;;34.72;20.40;;;18.40;53.80;;;;;;6288540;22;20374;-93
2021/04/01 09:42:09;;;;;;;36.33;20.25;;;18.00;52.40;;;;;;6286206;22;20374;-88
2021/04/01 09:59:19;;;;;;;40.63;19.85;;;17.90;52.40;;;;;;6195048;23;20472;-95
2021/04/01 10:03:18;;;;;;;46.28;21.42;;;17.80;53.20;;;;;;6142645;23;20381;-93
2021/04/01 10:09:57;;;;;;;37.38;18.55;;;17.80;56.40;;;;;;5987275;23;20418;-95
2021/04/01 10:13:32;;;;;;;35.35;17.88;;;17.60;54.40;;;;;;5990595;24;20498;-95
2021/04/01 10:16:25;;;;;;;37.88;18.23;;;17.70;53.60;;;;;;5909117;24;20394;-92
2021/04/01 10:18:55;;;;;;;40.25;18.88;;;17.80;53.70;;;;;;5884142;24;20404;-91
2021/04/01 10:21:46;;;;;;;41.80;18.80;;;17.90;54.90;;;;;;5909858;24;20585;-93
2021/04/01 10:28:05;;;;;;;38.33;18.88;;;18.20;51.50;;;;;;6227400;23;20371;-96
2021/04/01 10:31:27;;;;;;;40.33;19.30;;;18.30;52.00;;;;;;6221703;23;20424;-93
2021/04/01 10:34:53;;;;;;;39.55;18.45;;;18.30;51.80;;;;;;6108849;23;20388;-95
2021/04/01 10:40:51;;;;;;;35.63;18.17;;;18.50;51.00;;;;;;6283513;22;20392;-93
2021/04/01 10:43:46;;;;;;;36.03;17.35;;;18.40;51.10;;;;;;6255788;22;20418;-95
2021/04/01 10:51:13;;;;;;;34.92;16.95;;;18.10;54.00;;;;;;6283608;22;20396;-96
2021/04/01 10:58:54;;;;;;;32.85;15.65;;;18.70;54.30;;;;;;6284755;22;20446;-96
2021/04/01 11:02:02;;;;;;;33.60;14.33;;;18.80;53.10;;;;;;6283184;22;20400;-95
2021/04/01 11:17:55;;;;;;;33.97;15.93;;;20.00;50.60;;;;;;6261499;22;20386;-94
2021/04/01 11:20:25;;;;;;;33.30;16.05;;;20.10;47.10;;;;;;6291843;22;20394;-95
2021/04/01 11:24:04;;;;;;;;;;;;;;;;;;;;;
2021/04/01 11:27:04;;;;;;;31.75;15.95;;;19.80;48.70;;;;;;6157290;23;20391;-95
2021/04/01 11:29:59;;;;;;;36.08;14.98;;;19.70;48.50;;;;;;6119167;23;20375;-94
2021/04/01 11:32:28;;;;;;;36.03;16.30;;;19.80;50.60;;;;;;6169485;23;20402;-95
2021/04/01 11:35:27;;;;;;;37.43;15.27;;;19.80;51.70;;;;;;6165631;23;20398;-96
2021/04/01 11:48:43;;;;;;;33.75;16.77;;;20.00;48.00;;;;;;6275774;22;20400;-93
2021/04/01 11:51:37;;;;;;;35.10;15.27;;;20.30;48.50;;;;;;6262044;22;20457;-94
2021/04/01 11:54:25;;;;;;;35.07;15.90;;;20.10;43.90;;;;;;6257334;22;20376;-92
2021/04/01 11:57:57;;;;;;;33.40;16.15;;;20.20;46.60;;;;;;6290333;22;20357;-93
2021/04/01 12:01:20;;;;;;;34.35;16.05;;;20.10;47.30;;;;;;6196485;23;20409;-94
2021/04/01 12:04:40;;;;;;;30.15;14.68;;;20.20;47.90;;;;;;6109872;23;20449;-92
2021/04/01 12:08:13;;;;;;;34.00;16.88;;;20.10;46.50;;;;;;5971764;24;20425;-92
2021/04/01 12:11:52;;;;;;;37.63;16.30;;;20.00;49.40;;;;;;5984290;24;20458;-91
2021/04/01 12:14:55;;;;;;;30.80;14.50;;;20.10;47.60;;;;;;5993269;23;20404;-95
2021/04/01 12:18:07;;;;;;;33.00;14.48;;;20.30;47.70;;;;;;5865141;24;20411;-93
2021/04/01 12:20:57;;;;;;;25.67;12.73;;;20.60;46.90;;;;;;5884527;24;20499;-93
2021/04/01 12:24:26;;;;;;;25.70;13.07;;;21.00;46.10;;;;;;5861602;24;20376;-91
2021/04/01 12:27:47;;;;;;;30.30;12.00;;;21.10;44.50;;;;;;5841320;24;20518;-94
2021/04/01 12:30:51;;;;;;;30.88;12.65;;;21.20;44.10;;;;;;5781974;24;20392;-92
2021/04/01 12:33:29;;;;;;;24.13;10.23;;;21.00;43.80;;;;;;5832540;24;20394;-92
2021/04/01 12:36:03;;;;;;;22.92;10.43;;;21.00;41.40;;;;;;5827876;24;20440;-92
2021/04/01 12:39:07;;;;;;;21.05;9.15;;;21.20;42.50;;;;;;5810088;24;20388;-92
2021/04/01 12:41:43;;;;;;;16.63;6.88;;;21.10;39.60;;;;;;5885105;24;20416;-91
2021/04/01 12:44:11;;;;;;;14.40;5.30;;;21.00;38.40;;;;;;5870569;24;20392;-91
2021/04/01 12:53:49;;;;;;;11.15;4.35;;;20.10;38.80;;;;;;6047136;23;20452;-93
2021/04/01 12:57:03;;;;;;;15.25;5.63;;;20.40;37.30;;;;;;6027381;23;20946;-93
2021/04/01 12:59:53;;;;;;;13.05;5.30;;;20.20;38.50;;;;;;6001947;23;20421;-95
2021/04/01 13:03:06;;;;;;;11.50;5.07;;;19.70;37.90;;;;;;6078608;23;20747;-95
2021/04/01 13:05:51;;;;;;;19.30;6.95;;;20.20;39.00;;;;;;6100624;23;20395;-93
2021/04/01 13:09:23;;;;;;;15.70;5.95;;;20.60;39.60;;;;;;6113774;23;20392;-94
2021/04/01 13:11:22;;;;;;;15.80;7.13;;;20.40;38.50;;;;;;6127925;23;20564;-93
2021/04/01 13:13:49;;;;;;;16.88;7.05;;;20.00;39.70;;;;;;6130793;23;20428;-91
2021/04/01 13:16:18;;;;;;;14.73;6.57;;;19.80;40.40;;;;;;6131578;23;20385;-91
2021/04/01 13:18:47;;;;;;;20.67;7.38;;;20.00;41.50;;;;;;6130452;23;20492;-91
2021/04/01 13:27:35;;;;;;;17.38;7.18;;;19.10;43.00;;;;;;5953682;23;20394;-95
2021/04/01 13:30:14;;;;;;;20.15;8.65;;;19.10;41.40;;;;;;5999810;23;20415;-95
2021/04/01 13:33:50;;;;;;;20.30;9.15;;;19.30;42.80;;;;;;6045659;23;20370;-92
2021/04/01 13:36:46;;;;;;;19.90;8.77;;;19.50;42.20;;;;;;6107608;23;20480;-93
2021/04/01 13:40:24;;;;;;;19.45;8.65;;;19.80;40.90;;;;;;5993284;24;20405;-93
2021/04/01 13:46:16;;;;;;;21.65;10.48;;;19.90;41.50;;;;;;6200279;23;20388;-94
2021/04/01 13:49:02;;;;;;;16.85;8.05;;;20.20;41.20;;;;;;6130168;23;20377;-93
2021/04/01 13:51:32;;;;;;;16.20;7.88;;;20.00;39.70;;;;;;6173253;23;20400;-93
2021/04/01 13:54:46;;;;;;;15.02;7.53;;;19.80;40.90;;;;;;6100948;23;20377;-94
2021/04/01 14:10:23;;;;;;;11.70;5.72;;;20.80;33.90;;;;;;6168669;22;20850;-94
2021/04/01 14:13:14;;;;;;;12.00;5.75;;;20.70;33.10;;;;;;6199564;23;20403;-95
2021/04/01 14:15:44;;;;;;;14.85;6.22;;;20.70;33.70;;;;;;6200396;23;20391;-95
2021/04/01 14:18:12;;;;;;;13.02;6.13;;;20.20;34.60;;;;;;6193178;23;20387;-92
2021/04/01 14:20:40;;;;;;;12.13;6.13;;;20.20;34.30;;;;;;6194059;23;20399;-96
2021/04/01 14:23:18;;;;;;;14.15;5.90;;;19.80;34.50;;;;;;6200745;23;20519;-94
2021/04/01 14:26:45;;;;;;;18.90;7.47;;;19.60;36.10;;;;;;6207671;23;20354;-94
2021/04/01 14:29:14;;;;;;;13.50;6.43;;;19.30;36.50;;;;;;6195914;23;20414;-92
2021/04/01 14:31:40;;;;;;;16.73;6.55;;;18.90;36.80;;;;;;6194809;23;20391;-93
2021/04/01 14:34:08;;;;;;;11.30;6.10;;;18.70;38.70;;;;;;6169820;23;20498;-93
2021/04/01 14:36:35;;;;;;;12.07;5.30;;;18.80;37.20;;;;;;6195612;23;20418;-91
2021/04/01 14:39:05;;;;;;;14.80;6.55;;;18.80;36.60;;;;;;6193036;23;20462;-90
2021/04/01 14:41:41;;;;;;;12.90;6.43;;;18.80;36.60;;;;;;6192673;23;20918;-96
2021/04/01 14:44:19;;;;;;;15.00;6.00;;;19.30;36.30;;;;;;6197830;23;20415;-91
2021/04/01 14:47:05;;;;;;;13.53;6.43;;;19.60;35.30;;;;;;6162906;23;20380;-93
2021/04/01 14:50:09;;;;;;;14.52;5.82;;;19.70;35.50;;;;;;6186072;23;20371;-96
2021/04/01 14:52:46;;;;;;;13.13;5.67;;;19.80;35.80;;;;;;6136357;23;20399;-93
2021/04/01 14:55:15;;;;;;;11.98;5.80;;;19.70;37.20;;;;;;6135863;23;20390;-94
2021/04/01 14:57:43;;;;;;;11.15;5.47;;;19.60;35.50;;;;;;6155079;23;20922;-93
2021/04/01 15:00:14;;;;;;;13.73;5.50;;;19.70;36.40;;;;;;6133416;23;20426;-95
2021/04/01 15:06:22;;;;;;;13.13;5.43;;;18.90;36.10;;;;;;6049654;23;20429;-94
2021/04/01 15:08:50;;;;;;;15.98;5.20;;;18.60;37.00;;;;;;6044372;23;20397;-87
2021/04/01 15:11:16;;;;;;;13.90;5.97;;;18.40;37.80;;;;;;6063411;23;20392;-91
2021/04/01 15:13:43;;;;;;;16.63;5.90;;;18.20;38.20;;;;;;6069268;23;20403;-89
2021/04/01 15:16:10;;;;;;;12.18;5.75;;;18.00;38.80;;;;;;6044793;23;20518;-92
2021/04/01 15:18:38;;;;;;;13.35;6.30;;;18.00;39.40;;;;;;6045675;23;20706;-89
2021/04/01 15:21:10;;;;;;;16.83;6.72;;;17.90;39.30;;;;;;6047289;23;20461;-91
2021/04/01 15:23:36;;;;;;;16.45;6.63;;;17.80;40.70;;;;;;6100463;23;20393;-92
2021/04/01 15:26:10;;;;;;;12.43;6.72;;;17.80;40.80;;;;;;6102205;23;20440;-92
2021/04/01 15:28:42;;;;;;;12.93;6.95;;;17.70;40.50;;;;;;6103580;23;20416;-90
2021/04/01 15:31:10;;;;;;;15.55;7.10;;;17.60;41.00;;;;;;6102097;23;20380;-85
2021/04/01 15:33:38;;;;;;;17.77;7.03;;;17.60;41.10;;;;;;6103481;23;20381;-95
2021/04/01 15:36:08;;;;;;;12.95;6.95;;;17.60;41.50;;;;;;6111032;23;20368;-95
2021/04/01 15:39:07;;;;;;;16.60;7.22;;;17.50;41.10;;;;;;6109195;23;20409;-94
2021/04/01 15:41:41;;;;;;;15.13;7.55;;;17.40;40.70;;;;;;6116666;23;20389;-93
2021/04/01 15:44:10;;;;;;;13.23;7.63;;;17.30;41.60;;;;;;6108451;23;20388;-93
2021/04/01 15:46:41;;;;;;;14.48;7.15;;;17.30;41.80;;;;;;6130920;23;20396;-94
2021/04/01 15:49:28;;;;;;;18.67;8.20;;;17.20;41.50;;;;;;6132630;23;20420;-94
2021/04/01 15:51:54;;;;;;;18.08;8.13;;;17.10;42.90;;;;;;6113550;23;20393;-94
2021/04/01 15:54:41;;;;;;;15.77;7.90;;;17.10;43.10;;;;;;6113735;23;20513;-95
2021/04/01 15:57:14;;;;;;;24.00;8.98;;;17.00;43.30;;;;;;6259306;22;20386;-96
2021/04/01 16:07:28;;;;;;;19.40;10.45;;;16.90;44.70;;;;;;6326671;22;20454;-96
2021/04/01 16:14:33;;;;;;;25.95;10.93;;;16.90;46.00;;;;;;6287312;22;20383;-96
2021/04/01 16:17:31;;;;;;;22.70;11.52;;;16.90;46.60;;;;;;6168693;23;20378;-95
2021/04/01 16:19:58;;;;;;;26.90;11.25;;;16.90;46.20;;;;;;6166375;23;20417;-96
2021/04/01 16:22:25;;;;;;;22.20;11.50;;;16.80;46.70;;;;;;6157853;23;20391;-93
2021/04/01 16:24:58;;;;;;;25.70;12.00;;;16.80;47.10;;;;;;6164302;23;20459;-95
2021/04/01 16:27:45;;;;;;;28.70;12.27;;;16.70;48.00;;;;;;6141465;23;20375;-94
2021/04/01 16:31:01;;;;;;;25.20;11.93;;;16.70;47.80;;;;;;6256529;22;20400;-94
2021/04/01 16:34:24;;;;;;;23.20;12.70;;;16.60;48.90;;;;;;6264757;22;20398;-95
2021/04/01 16:37:14;;;;;;;25.17;12.40;;;16.50;49.20;;;;;;6087420;23;20452;-96
2021/04/01 16:40:28;;;;;;;28.08;12.98;;;16.40;49.30;;;;;;6082893;23;20516;-96
2021/04/01 16:43:31;;;;;;;30.35;13.65;;;16.40;50.10;;;;;;5968440;24;20382;-95
2021/04/01 16:46:08;;;;;;;29.83;14.83;;;16.40;50.00;;;;;;5969936;24;20390;-90
2021/04/01 16:48:46;;;;;;;35.80;14.75;;;16.40;50.90;;;;;;5964622;24;20411;-96
2021/04/01 16:57:33;;;;;;;26.95;14.40;;;16.20;51.60;;;;;;6224773;22;20407;-95
2021/04/01 17:00:50;;;;;;;30.50;14.05;;;16.10;51.40;;;;;;6220359;23;20521;-96
2021/04/01 17:04:32;;;;;;;25.52;13.57;;;16.20;51.20;;;;;;6223982;23;20386;-93
2021/04/01 18:32:41;;;;;;;27.63;13.27;;;13.70;59.70;;;;;;6196718;23;20403;-95
2021/04/01 19:06:05;;;;;;;34.53;12.25;;;12.70;63.00;;;;;;6261956;22;20380;-95
2021/04/01 20:02:37;;;;;;;27.08;10.63;;;12.90;61.40;;;;;;6230809;22;20477;-96
2021/04/01 20:09:10;;;;;;;27.02;10.40;;;13.00;61.30;;;;;;6229775;22;20400;-96
2021/04/01 20:11:57;;;;;;;24.58;10.43;;;13.00;60.90;;;;;;6239337;23;20366;-95
2021/04/01 20:15:15;;;;;;;27.65;10.80;;;12.90;61.20;;;;;;6181831;23;20389;-95
2021/04/01 20:21:32;;;;;;;30.70;10.95;;;12.90;61.80;;;;;;6266477;22;20396;-95
2021/04/01 20:24:12;;;;;;;24.23;9.77;;;12.70;62.50;;;;;;6239220;22;20363;-96
2021/04/01 20:26:55;;;;;;;27.17;9.30;;;12.70;62.70;;;;;;6244464;22;20380;-95
2021/04/01 20:29:43;;;;;;;26.20;9.70;;;12.50;62.90;;;;;;6268864;22;20415;-96
2021/04/01 20:32:10;;;;;;;26.52;9.43;;;12.50;62.50;;;;;;6265494;22;20404;-96
2021/04/01 20:34:48;;;;;;;25.50;9.15;;;12.50;62.70;;;;;;6269044;22;20384;-96
2021/04/01 20:37:22;;;;;;;23.60;9.10;;;12.60;62.40;;;;;;6262090;22;20714;-95
2021/04/01 20:39:59;;;;;;;25.65;9.18;;;12.50;62.50;;;;;;6264582;22;20399;-94
2021/04/01 20:42:47;;;;;;;31.08;10.10;;;12.50;62.60;;;;;;6270131;22;20411;-94
2021/04/01 20:45:28;;;;;;;26.30;9.68;;;12.40;62.80;;;;;;6298999;22;20459;-96
2021/04/01 20:51:15;;;;;;;27.07;8.70;;;12.30;64.00;;;;;;6288573;22;20388;-94
2021/04/01 20:53:47;;;;;;;24.98;8.82;;;12.30;64.40;;;;;;6250200;22;20395;-95
2021/04/01 20:56:30;;;;;;;25.10;8.75;;;12.30;64.40;;;;;;6247866;22;20471;-96
2021/04/01 21:04:30;;;;;;;23.00;7.70;;;12.20;65.40;;;;;;6253132;22;20420;-96
2021/04/01 21:07:15;;;;;;;24.60;7.30;;;12.20;65.80;;;;;;6213420;23;20372;-95
2021/04/01 21:12:47;;;;;;;17.63;6.72;;;12.10;67.10;;;;;;6231596;23;20386;-96
2021/04/01 21:15:33;;;;;;;20.97;7.10;;;12.10;67.30;;;;;;6208370;23;20407;-96
